createdAt,value
2023-04-30T00:01:14.496Z,24.88
2023-04-30T00:03:41.535Z,17.00
2023-04-30T00:06:08.755Z,14.13
2023-04-30T00:08:35.847Z,21.88
2023-04-30T00:11:02.716Z,14.57
2023-04-30T00:13:29.571Z,13.85
2023-04-30T00:15:56.518Z,17.92
2023-04-30T00:18:23.466Z,23.15
2023-04-30T00:20:52.136Z,16.45
2023-04-30T00:23:19.167Z,19.17
2023-04-30T00:25:46.111Z,21.55
2023-04-30T00:28:13.227Z,19.77
2023-04-30T00:30:40.162Z,17.95
2023-04-30T00:33:07.946Z,18.05
2023-04-30T00:35:35.335Z,14.80
2023-04-30T00:38:02.459Z,13.85
2023-04-30T00:40:30.412Z,14.55
2023-04-30T00:42:57.495Z,12.90
2023-04-30T00:45:24.501Z,10.63
2023-04-30T00:47:52.012Z,11.93
2023-04-30T00:50:19.855Z,9.10
2023-04-30T00:52:47.288Z,8.93
2023-04-30T00:55:15.319Z,10.35
2023-04-30T00:57:42.823Z,8.10
2023-04-30T01:00:11.156Z,9.27
2023-04-30T01:02:39.076Z,8.30
2023-04-30T01:05:07.722Z,8.77
2023-04-30T01:07:36.519Z,7.97
2023-04-30T01:10:07.055Z,6.75
2023-04-30T01:12:43.306Z,13.13
2023-04-30T01:15:32.289Z,9.18
2023-04-30T01:18:35.187Z,9.57
2023-04-30T01:21:06.110Z,13.48
2023-04-30T01:23:49.663Z,10.32
2023-04-30T01:26:43.684Z,12.15
2023-04-30T01:29:14.678Z,10.52
2023-04-30T01:31:45.034Z,9.95
2023-04-30T01:34:12.758Z,10.65
2023-04-30T01:37:15.979Z,11.15
2023-04-30T01:40:21.266Z,12.93
2023-04-30T01:43:23.469Z,10.10
2023-04-30T01:46:27.606Z,11.32
2023-04-30T01:49:51.506Z,10.48
2023-04-30T01:52:29.875Z,10.10
2023-04-30T01:55:12.295Z,9.93
2023-04-30T01:57:45.752Z,11.95
2023-04-30T02:00:15.007Z,9.18
2023-04-30T02:02:42.065Z,11.73
2023-04-30T02:05:09.242Z,13.63
2023-04-30T02:07:44.471Z,11.38
2023-04-30T02:12:41.861Z,17.35
2023-04-30T02:15:09.784Z,15.18
2023-04-30T02:17:37.410Z,15.10
2023-04-30T02:20:05.363Z,19.02
2023-04-30T02:22:32.480Z,18.13
2023-04-30T02:24:59.460Z,20.08
2023-04-30T02:27:27.186Z,17.98
2023-04-30T02:29:54.527Z,22.02
2023-04-30T02:32:21.862Z,20.98
2023-04-30T02:34:49.549Z,26.38
2023-04-30T02:37:16.679Z,17.10
2023-04-30T02:39:43.932Z,18.48
2023-04-30T02:42:11.201Z,19.95
2023-04-30T02:44:38.117Z,19.58
2023-04-30T02:47:05.706Z,18.77
2023-04-30T02:49:33.167Z,18.67
2023-04-30T02:52:00.137Z,15.98
2023-04-30T02:54:27.261Z,17.85
2023-04-30T02:56:54.245Z,13.95
2023-04-30T02:59:21.577Z,12.95
2023-04-30T03:01:49.391Z,15.85
2023-04-30T03:04:16.849Z,17.58
2023-04-30T03:06:44.376Z,18.48
2023-04-30T03:09:11.438Z,17.80
2023-04-30T03:11:38.323Z,14.45
2023-04-30T03:14:09.363Z,19.30
2023-04-30T03:16:36.737Z,13.48
2023-04-30T03:19:03.710Z,14.27
2023-04-30T03:21:31.109Z,15.13
2023-04-30T03:23:59.689Z,13.98
2023-04-30T03:26:27.351Z,12.57
2023-04-30T03:28:55.749Z,15.18
2023-04-30T03:31:22.924Z,13.25
2023-04-30T03:33:50.068Z,11.27
2023-04-30T03:36:16.988Z,12.18
2023-04-30T03:38:44.072Z,11.57
2023-04-30T03:41:11.862Z,12.13
2023-04-30T03:43:38.902Z,10.85
2023-04-30T03:46:06.355Z,12.40
2023-04-30T03:48:33.359Z,13.23
2023-04-30T03:51:00.742Z,10.85
2023-04-30T03:53:27.949Z,11.32
2023-04-30T03:55:55.814Z,12.13
2023-04-30T03:58:23.495Z,8.98
2023-04-30T04:00:50.663Z,11.02
2023-04-30T04:03:17.970Z,10.10
2023-04-30T04:05:46.102Z,7.80
2023-04-30T04:08:13.056Z,11.93
2023-04-30T04:10:41.026Z,11.40
2023-04-30T04:13:09.387Z,9.30
2023-04-30T04:15:36.310Z,10.82
2023-04-30T04:18:03.911Z,9.52
2023-04-30T04:20:31.908Z,9.93
2023-04-30T04:22:59.053Z,9.32
2023-04-30T04:25:27.419Z,10.90
2023-04-30T04:27:54.340Z,8.50
2023-04-30T04:30:21.769Z,9.85
2023-04-30T04:32:53.816Z,10.75
2023-04-30T04:35:21.637Z,11.13
2023-04-30T04:37:48.796Z,8.85
2023-04-30T04:40:15.822Z,12.55
2023-04-30T04:42:42.784Z,11.55
2023-04-30T04:45:11.202Z,12.75
2023-04-30T04:47:39.145Z,9.40
2023-04-30T04:50:07.713Z,9.90
2023-04-30T04:52:34.900Z,8.43
2023-04-30T04:55:02.233Z,7.97
2023-04-30T04:57:29.240Z,10.85
2023-04-30T04:59:57.062Z,15.23
2023-04-30T05:02:24.463Z,9.27
2023-04-30T05:04:51.910Z,11.40
2023-04-30T05:07:19.929Z,10.15
2023-04-30T05:09:47.545Z,7.43
2023-04-30T05:12:15.053Z,12.10
2023-04-30T05:14:42.960Z,13.30
2023-04-30T05:17:09.979Z,10.40
2023-04-30T05:19:36.907Z,9.95
2023-04-30T05:22:04.152Z,10.80
2023-04-30T05:24:31.289Z,8.80
2023-04-30T05:26:58.337Z,9.73
2023-04-30T05:29:25.705Z,9.63
2023-04-30T05:31:52.770Z,8.07
2023-04-30T05:34:19.845Z,7.55
2023-04-30T05:36:46.896Z,8.00
2023-04-30T05:39:14.232Z,9.60
2023-04-30T05:41:41.287Z,8.98
2023-04-30T05:44:08.187Z,7.32
2023-04-30T05:46:35.439Z,10.32
2023-04-30T05:49:02.704Z,8.80
2023-04-30T05:51:29.699Z,8.23
2023-04-30T05:53:57.558Z,8.75
2023-04-30T05:56:25.817Z,7.85
2023-04-30T05:58:53.632Z,12.75
2023-04-30T06:01:23.796Z,8.27
2023-04-30T06:03:54.229Z,7.32
2023-04-30T06:06:21.351Z,9.57
2023-04-30T06:08:50.044Z,8.10
2023-04-30T06:11:17.014Z,8.80
2023-04-30T06:13:43.920Z,8.73
2023-04-30T06:16:11.273Z,8.35
2023-04-30T06:18:38.285Z,6.82
2023-04-30T06:21:05.237Z,7.30
2023-04-30T06:23:32.168Z,9.40
2023-04-30T06:25:59.168Z,7.03
2023-04-30T06:28:26.268Z,7.70
2023-04-30T06:30:54.509Z,10.18
2023-04-30T06:33:22.266Z,9.20
2023-04-30T06:35:51.041Z,9.52
2023-04-30T06:38:18.298Z,6.53
2023-04-30T06:40:46.331Z,5.50
2023-04-30T06:43:13.794Z,8.57
2023-04-30T06:45:42.306Z,8.52
2023-04-30T06:48:10.761Z,5.07
2023-04-30T06:50:44.854Z,8.23
2023-04-30T06:53:15.947Z,8.75
2023-04-30T06:55:43.133Z,9.65
2023-04-30T06:58:10.113Z,5.95
2023-04-30T07:00:40.415Z,5.38
2023-04-30T07:03:08.006Z,6.65
2023-04-30T07:05:35.416Z,7.88
2023-04-30T07:08:04.001Z,7.88
2023-04-30T07:10:31.805Z,9.55
2023-04-30T07:12:59.679Z,7.25
2023-04-30T07:15:27.688Z,8.18
2023-04-30T07:17:55.236Z,8.95
2023-04-30T07:20:24.543Z,11.02
2023-04-30T07:22:51.938Z,5.95
2023-04-30T07:25:19.447Z,7.25
2023-04-30T07:27:47.005Z,6.05
2023-04-30T07:30:15.648Z,7.15
2023-04-30T07:32:44.278Z,4.95
2023-04-30T07:35:11.755Z,13.05
2023-04-30T07:37:41.089Z,8.48
2023-04-30T07:40:15.253Z,6.35
2023-04-30T07:42:47.526Z,6.93
2023-04-30T07:45:15.351Z,6.38
2023-04-30T07:47:42.848Z,6.80
2023-04-30T07:50:12.463Z,8.45
2023-04-30T07:52:39.879Z,7.90
2023-04-30T07:55:07.461Z,10.27
2023-04-30T07:57:34.823Z,9.15
2023-04-30T08:00:02.169Z,6.95
2023-04-30T08:02:39.806Z,7.60
2023-04-30T08:05:07.819Z,7.70
2023-04-30T08:07:35.133Z,7.15
2023-04-30T08:10:02.553Z,6.07
2023-04-30T08:12:30.359Z,6.25
2023-04-30T08:15:05.160Z,6.72
2023-04-30T08:17:33.676Z,7.90
2023-04-30T08:20:01.816Z,6.20
2023-04-30T08:22:29.367Z,7.50
2023-04-30T08:24:56.840Z,10.05
2023-04-30T08:27:24.242Z,9.27
2023-04-30T08:29:51.548Z,5.93
2023-04-30T08:32:20.064Z,5.82
2023-04-30T08:34:47.510Z,9.55
2023-04-30T08:37:27.140Z,11.05
2023-04-30T08:39:54.767Z,7.90
2023-04-30T08:42:26.158Z,6.53
2023-04-30T08:44:53.664Z,7.43
2023-04-30T08:47:22.743Z,7.80
2023-04-30T08:49:50.468Z,8.23
2023-04-30T08:52:18.810Z,7.88
2023-04-30T08:54:47.718Z,7.10
2023-04-30T08:57:15.162Z,5.72
2023-04-30T08:59:44.947Z,6.57
2023-04-30T09:02:12.616Z,6.00
2023-04-30T09:04:40.080Z,4.65
2023-04-30T09:07:09.733Z,8.27
2023-04-30T09:09:40.790Z,4.75
2023-04-30T09:12:22.422Z,10.00
2023-04-30T09:15:00.230Z,6.55
2023-04-30T09:17:28.194Z,5.57
2023-04-30T09:19:56.385Z,8.45
2023-04-30T09:22:48.229Z,9.05
2023-04-30T09:25:16.206Z,6.63
2023-04-30T09:27:45.000Z,7.60
2023-04-30T09:30:31.809Z,7.43
2023-04-30T09:32:59.152Z,5.50
2023-04-30T09:35:34.580Z,10.23
2023-04-30T09:42:20.716Z,6.47
2023-04-30T09:44:48.537Z,7.53
2023-04-30T09:47:19.435Z,4.65
2023-04-30T09:49:52.509Z,6.90
2023-04-30T09:52:21.219Z,5.55
2023-04-30T09:54:49.455Z,6.45
2023-04-30T09:57:18.951Z,7.25
2023-04-30T09:59:47.147Z,5.97
2023-04-30T10:02:45.074Z,7.03
2023-04-30T10:05:12.498Z,6.50
2023-04-30T10:07:42.617Z,6.93
2023-04-30T10:10:11.205Z,5.93
2023-04-30T10:12:51.365Z,6.40
2023-04-30T10:15:24.779Z,5.88
2023-04-30T10:18:03.672Z,5.35
2023-04-30T10:20:33.628Z,4.55
2023-04-30T10:23:01.335Z,4.68
2023-04-30T10:25:29.869Z,6.50
2023-04-30T10:28:04.842Z,4.47
2023-04-30T10:31:01.114Z,8.32
2023-04-30T10:34:06.524Z,5.25
2023-04-30T10:36:42.160Z,3.78
2023-04-30T10:39:09.687Z,6.68
2023-04-30T10:41:37.010Z,9.27
2023-04-30T10:44:05.462Z,5.03
2023-04-30T10:46:36.026Z,6.53
2023-04-30T10:49:03.837Z,5.18
2023-04-30T10:51:58.741Z,13.15
2023-04-30T10:54:37.030Z,5.60
2023-04-30T10:57:14.616Z,5.80
2023-04-30T11:00:04.804Z,6.90
2023-04-30T11:02:44.036Z,3.67
2023-04-30T11:05:12.843Z,7.07
2023-04-30T11:08:15.292Z,6.32
2023-04-30T11:14:06.680Z,5.75
2023-04-30T11:16:37.639Z,6.13
2023-04-30T11:19:14.217Z,7.15
2023-04-30T11:21:42.566Z,8.15
2023-04-30T11:24:10.016Z,4.78
2023-04-30T11:27:06.144Z,4.00
2023-04-30T11:29:34.231Z,7.97
2023-04-30T11:32:03.911Z,5.15
2023-04-30T11:34:31.717Z,6.28
2023-04-30T11:37:01.592Z,5.57
2023-04-30T11:39:29.748Z,6.65
2023-04-30T11:41:58.080Z,7.57
2023-04-30T11:44:28.710Z,6.38
2023-04-30T11:46:56.139Z,5.20
2023-04-30T11:49:23.686Z,5.18
2023-04-30T11:51:52.394Z,7.70
2023-04-30T11:54:20.826Z,8.07
2023-04-30T11:56:49.903Z,3.83
2023-04-30T11:59:19.119Z,4.75
2023-04-30T12:01:46.619Z,4.15
2023-04-30T12:04:14.790Z,4.60
2023-04-30T12:06:42.451Z,5.32
2023-04-30T12:09:11.642Z,5.32
2023-04-30T12:11:39.731Z,3.58
2023-04-30T12:14:10.725Z,8.30
2023-04-30T12:16:52.431Z,4.93
2023-04-30T12:19:22.626Z,6.60
2023-04-30T12:21:50.933Z,7.20
2023-04-30T12:24:19.578Z,7.18
2023-04-30T12:26:48.022Z,5.03
2023-04-30T12:29:19.193Z,3.20
2023-04-30T12:31:53.437Z,5.28
2023-04-30T12:38:18.777Z,5.65
2023-04-30T12:41:15.133Z,5.35
2023-04-30T12:52:26.703Z,6.25
2023-04-30T12:54:54.937Z,6.47
2023-04-30T12:57:22.413Z,3.47
2023-04-30T12:59:55.851Z,3.08
2023-04-30T13:02:45.855Z,5.70
2023-04-30T13:05:15.382Z,4.18
2023-04-30T13:07:43.323Z,2.88
2023-04-30T13:10:11.846Z,6.10
2023-04-30T13:12:39.087Z,4.80
2023-04-30T13:15:06.922Z,3.17
2023-04-30T13:17:34.262Z,4.18
2023-04-30T13:20:01.613Z,5.55
2023-04-30T13:22:29.673Z,4.93
2023-04-30T13:24:57.064Z,4.53
2023-04-30T13:27:24.344Z,4.78
2023-04-30T13:29:51.662Z,3.28
2023-04-30T13:32:19.011Z,3.95
2023-04-30T13:34:46.887Z,3.40
2023-04-30T13:37:14.262Z,5.75
2023-04-30T13:39:41.506Z,5.35
2023-04-30T13:42:08.796Z,6.95
2023-04-30T13:44:36.678Z,5.53
2023-04-30T13:47:04.129Z,4.13
2023-04-30T13:49:41.904Z,4.65
2023-04-30T13:52:20.890Z,6.03
2023-04-30T13:54:48.503Z,5.95
2023-04-30T13:57:15.786Z,3.63
2023-04-30T13:59:43.699Z,4.40
2023-04-30T14:02:11.323Z,4.95
2023-04-30T14:04:38.699Z,3.47
2023-04-30T14:07:06.102Z,5.65
2023-04-30T14:09:33.536Z,5.90
2023-04-30T14:12:01.049Z,2.22
2023-04-30T14:14:29.097Z,5.43
2023-04-30T14:16:56.658Z,2.40
2023-04-30T14:19:24.111Z,3.65
2023-04-30T14:21:51.577Z,3.97
2023-04-30T14:24:20.014Z,3.35
2023-04-30T14:26:47.296Z,4.20
2023-04-30T14:29:14.669Z,2.75
2023-04-30T14:31:41.998Z,2.88
2023-04-30T14:34:12.888Z,2.00
2023-04-30T14:36:41.359Z,1.75
2023-04-30T14:39:09.072Z,2.50
2023-04-30T14:41:37.897Z,2.95
2023-04-30T14:44:06.787Z,4.68
2023-04-30T14:46:34.767Z,3.85
2023-04-30T14:49:02.334Z,2.85
2023-04-30T14:51:31.905Z,2.60
2023-04-30T14:53:59.344Z,2.60
2023-04-30T14:56:26.689Z,2.70
2023-04-30T14:58:54.084Z,2.72
2023-04-30T15:01:21.395Z,3.22
2023-04-30T15:03:48.919Z,4.18
2023-04-30T15:06:16.568Z,4.07
2023-04-30T15:08:44.038Z,5.22
2023-04-30T15:11:13.209Z,1.92
2023-04-30T15:13:40.640Z,4.80
2023-04-30T15:16:08.282Z,2.88
2023-04-30T15:18:35.785Z,4.38
2023-04-30T15:21:04.226Z,4.18
2023-04-30T15:23:31.909Z,2.53
2023-04-30T15:25:59.831Z,5.75
2023-04-30T15:28:28.156Z,4.78
2023-04-30T15:30:55.586Z,5.55
2023-04-30T15:33:44.342Z,4.35
2023-04-30T15:36:12.116Z,6.53
2023-04-30T15:38:39.853Z,5.25
2023-04-30T15:41:07.569Z,4.35
2023-04-30T15:43:35.584Z,4.68
2023-04-30T15:46:03.544Z,3.47
2023-04-30T15:48:31.211Z,4.43
2023-04-30T15:50:58.640Z,4.00
2023-04-30T15:53:26.016Z,4.65
2023-04-30T15:55:53.849Z,6.28
2023-04-30T15:58:21.275Z,1.90
2023-04-30T16:00:52.388Z,4.88
2023-04-30T16:03:19.994Z,5.50
2023-04-30T16:05:47.477Z,4.40
2023-04-30T16:08:16.070Z,3.33
2023-04-30T16:10:43.475Z,4.40
2023-04-30T16:13:14.961Z,3.22
2023-04-30T16:15:42.291Z,3.30
2023-04-30T16:18:10.058Z,4.80
2023-04-30T16:20:37.934Z,4.53
2023-04-30T16:23:06.073Z,5.93
2023-04-30T16:25:33.514Z,4.93
2023-04-30T16:28:00.841Z,6.07
2023-04-30T16:30:28.282Z,4.38
2023-04-30T16:32:55.656Z,2.85
2023-04-30T16:35:22.973Z,4.15
2023-04-30T16:37:50.668Z,3.78
2023-04-30T16:40:18.152Z,2.63
2023-04-30T16:42:45.529Z,7.97
2023-04-30T16:45:12.838Z,3.28
2023-04-30T16:47:40.523Z,4.22
2023-04-30T16:50:08.932Z,3.63
2023-04-30T16:52:36.250Z,4.55
2023-04-30T16:55:04.641Z,5.70
2023-04-30T16:57:32.021Z,6.07
2023-04-30T16:59:59.518Z,4.90
2023-04-30T17:02:27.237Z,3.10
2023-04-30T17:04:54.683Z,6.30
2023-04-30T17:07:22.548Z,5.28
2023-04-30T17:09:51.604Z,4.45
2023-04-30T17:12:19.873Z,6.75
2023-04-30T17:14:47.236Z,5.25
2023-04-30T17:17:14.575Z,8.45
2023-04-30T17:19:41.898Z,3.15
2023-04-30T17:22:09.209Z,4.13
2023-04-30T17:24:36.535Z,3.38
2023-04-30T17:27:05.548Z,6.53
2023-04-30T17:29:33.393Z,5.75
2023-04-30T17:32:00.863Z,4.30
2023-04-30T17:34:28.207Z,5.22
2023-04-30T17:36:55.612Z,5.75
2023-04-30T17:39:23.209Z,5.60
2023-04-30T17:41:50.627Z,5.05
2023-04-30T17:44:20.334Z,4.00
2023-04-30T17:46:47.879Z,4.30
2023-04-30T17:49:15.438Z,5.80
2023-04-30T17:51:43.008Z,3.60
2023-04-30T17:54:10.634Z,3.95
2023-04-30T17:56:40.463Z,2.97
2023-04-30T17:59:08.430Z,5.80
2023-04-30T18:01:36.155Z,6.63
2023-04-30T18:04:07.185Z,7.05
2023-04-30T18:06:35.055Z,5.38
2023-04-30T18:09:03.862Z,4.30
2023-04-30T18:11:31.199Z,8.05
2023-04-30T18:13:58.470Z,5.47
2023-04-30T18:16:25.875Z,8.55
2023-04-30T18:18:53.373Z,9.52
2023-04-30T18:21:20.640Z,5.68
2023-04-30T18:23:48.054Z,6.00
2023-04-30T18:26:15.483Z,8.48
2023-04-30T18:28:43.014Z,8.07
2023-04-30T18:31:11.730Z,8.20
2023-04-30T18:33:39.331Z,6.45
2023-04-30T18:36:07.559Z,6.38
2023-04-30T18:38:35.325Z,5.53
2023-04-30T18:41:02.732Z,7.43
2023-04-30T18:43:30.179Z,3.85
2023-04-30T18:45:57.678Z,5.13
2023-04-30T18:48:25.105Z,6.70
2023-04-30T18:50:52.498Z,5.45
2023-04-30T18:53:20.425Z,6.57
2023-04-30T18:55:48.288Z,7.75
2023-04-30T18:58:16.345Z,5.72
2023-04-30T19:00:43.693Z,6.90
2023-04-30T19:03:11.241Z,6.57
2023-04-30T19:05:38.589Z,5.10
2023-04-30T19:08:07.909Z,4.68
2023-04-30T19:10:36.314Z,9.18
2023-04-30T19:13:04.046Z,5.75
2023-04-30T19:15:31.512Z,7.13
2023-04-30T19:17:58.880Z,5.35
2023-04-30T19:20:31.148Z,5.35
2023-04-30T19:22:58.675Z,4.72
2023-04-30T19:25:26.598Z,6.78
2023-04-30T19:27:54.372Z,4.22
2023-04-30T19:30:21.913Z,4.53
2023-04-30T19:32:49.347Z,4.40
2023-04-30T19:35:16.751Z,7.30
2023-04-30T19:37:44.122Z,7.78
2023-04-30T19:40:14.001Z,7.60
2023-04-30T19:42:42.034Z,9.23
2023-04-30T19:45:10.789Z,7.78
2023-04-30T19:47:38.343Z,8.52
2023-04-30T19:50:06.248Z,12.77
2023-04-30T19:52:33.703Z,7.97
2023-04-30T19:55:01.012Z,10.23
2023-04-30T19:57:31.856Z,10.13
2023-04-30T19:59:59.745Z,6.97
2023-04-30T20:02:27.060Z,6.18
2023-04-30T20:04:54.399Z,5.18
2023-04-30T20:07:21.817Z,6.68
2023-04-30T20:09:49.198Z,9.45
2023-04-30T20:12:16.705Z,10.18
2023-04-30T20:14:44.011Z,6.32
2023-04-30T20:17:13.257Z,9.52
2023-04-30T20:19:40.514Z,6.53
2023-04-30T20:22:12.956Z,9.75
2023-04-30T20:24:44.981Z,7.60
2023-04-30T20:27:12.836Z,6.80
2023-04-30T20:29:41.188Z,5.07
2023-04-30T20:32:09.273Z,11.77
2023-04-30T20:34:37.144Z,5.88
2023-04-30T20:37:05.596Z,6.85
2023-04-30T20:39:33.037Z,5.03
2023-04-30T20:42:01.407Z,6.78
2023-04-30T20:44:28.844Z,8.75
2023-04-30T20:46:56.319Z,7.07
2023-04-30T20:49:24.176Z,11.32
2023-04-30T20:51:51.610Z,10.45
2023-04-30T20:54:18.998Z,7.90
2023-04-30T20:56:47.186Z,9.55
2023-04-30T20:59:14.644Z,12.07
2023-04-30T21:01:42.181Z,9.00
2023-04-30T21:04:09.696Z,8.63
2023-04-30T21:06:38.342Z,9.68
2023-04-30T21:09:06.250Z,8.98
2023-04-30T21:11:33.749Z,8.50
2023-04-30T21:14:01.065Z,10.57
2023-04-30T21:16:28.526Z,13.27
2023-04-30T21:18:55.956Z,12.23
2023-04-30T21:21:23.793Z,9.18
2023-04-30T21:23:51.096Z,10.40
2023-04-30T21:26:18.733Z,11.75
2023-04-30T21:28:46.337Z,8.18
2023-04-30T21:31:13.843Z,11.93
2023-04-30T21:33:41.693Z,8.32
2023-04-30T21:36:09.031Z,11.00
2023-04-30T21:38:36.591Z,7.68
2023-04-30T21:41:04.121Z,10.95
2023-04-30T21:43:31.544Z,13.05
2023-04-30T21:46:03.472Z,14.02
2023-04-30T21:48:31.669Z,13.00
2023-04-30T21:50:58.988Z,9.80
2023-04-30T21:53:26.535Z,13.90
2023-04-30T21:55:53.861Z,12.43
2023-04-30T21:58:21.243Z,12.57
2023-04-30T22:00:48.889Z,16.05
2023-04-30T22:03:16.487Z,12.82
2023-04-30T22:05:44.051Z,12.90
2023-04-30T22:08:11.387Z,15.80
2023-04-30T22:10:38.941Z,16.38
2023-04-30T22:13:06.630Z,18.70
2023-04-30T22:15:47.175Z,15.32
2023-04-30T22:18:15.682Z,21.60
2023-04-30T22:20:42.968Z,20.20
2023-04-30T22:23:10.543Z,22.88
2023-04-30T22:25:37.838Z,21.83
2023-04-30T22:28:05.482Z,26.25
2023-04-30T22:30:32.896Z,33.00
2023-04-30T22:33:00.235Z,27.23
2023-04-30T22:35:28.189Z,31.02
2023-04-30T22:37:56.107Z,39.53
2023-04-30T22:40:24.834Z,34.88
2023-04-30T22:42:53.675Z,36.50
2023-04-30T22:45:21.232Z,40.78
2023-04-30T22:47:48.892Z,34.53
2023-04-30T22:50:16.380Z,41.05
2023-04-30T22:52:43.703Z,47.30
2023-04-30T22:55:11.680Z,50.40
2023-04-30T22:57:39.444Z,47.20
2023-04-30T23:00:08.082Z,44.35
2023-04-30T23:02:35.431Z,44.90
2023-04-30T23:05:03.705Z,43.78
2023-04-30T23:07:31.911Z,45.85
2023-04-30T23:09:59.582Z,46.03
2023-04-30T23:12:26.899Z,43.65
2023-04-30T23:14:54.335Z,41.55
2023-04-30T23:17:23.371Z,42.53
2023-04-30T23:19:51.271Z,38.25
2023-04-30T23:22:18.606Z,37.95
2023-04-30T23:24:46.010Z,37.67
2023-04-30T23:27:13.413Z,37.25
2023-04-30T23:29:43.193Z,36.85
2023-04-30T23:32:11.098Z,34.38
2023-04-30T23:34:38.560Z,38.30
2023-04-30T23:37:05.974Z,34.78
2023-04-30T23:39:33.509Z,34.78
2023-04-30T23:42:00.830Z,41.42
2023-04-30T23:44:30.412Z,42.30
2023-04-30T23:47:00.913Z,44.10
2023-04-30T23:49:30.312Z,43.92
2023-04-30T23:51:57.627Z,48.05
2023-04-30T23:54:24.965Z,46.83
2023-04-30T23:56:52.775Z,49.28
2023-04-30T23:59:20.166Z,46.97
